Terminal Aerodrome Forecast
Issued by NWS Pocatello, ID

Home | Current Version | Previous Version | Text Only | Print | Product List | Glossary On
Versions: 1 2 3 4 5 6 7 8 9 10 11 12 13
000
FTUS45 KPIH 191120
TAFIDA
TAF
KIDA 191120Z 1912/2012 03010KT P6SM SCT120
     FM192000 VRB06KT P6SM BKN110=

USA.gov is the U.S. government's official web portal to all federal, state and local government web resources and services.